Terminal Aerodrome Forecast
Issued by NWS

Home | Current Version | Previous Version | Text Only | Print | Product List | Glossary On
Versions: 1 2 3 4 5 6 7 8 9 10 11 12 13 14 15 16 17 18 19 20 21 22 23 24 25 26 27 28 29 30 31 32 33 34
000
FTUS41 KRNK 251144
TAFBCB
TAF
KBCB 251144Z 2512/2612 29005KT P6SM SCT045 BKN250
     FM251400 29008G16KT P6SM SCT050 BKN250
     FM251800 29010G20KT P6SM SCT050 BKN250
     FM260000 30005KT P6SM SCT250
      TEMPO 2608/2612 5SM BR=

USA.gov is the U.S. government's official web portal to all federal, state and local government web resources and services.